KCEZ/CEZ METAR and TAF weather

Enter ICAO airport designator
Station Type Date Time Source
KCEZ METAR 2019/08/22 01:53 UTC NOAA

KCEZ 220153Z AUTO 15015G27KT 10SM CLR 26/05 A3008 RMK AO2 PK WND 16030/0143 SLP105 T02560050


Station Type Date Time Source
KCEZ Decoded METAR 2019/08/22 01:53 UTC NOAA

Station name not available
Aug 21, 2019 - 09:53 PM EDT / 2019.08.22 0153 UTC
Wind: from the SSE (150 degrees) at 17 MPH (15 KT) gusting to 31 MPH (27 KT):0
Visibility: 10 mile(s):0
Sky conditions: clear
Temperature: 78.1 F (25.6 C)
Dew Point: 41.0 F (5.0 C)
Relative Humidity: 26%
Pressure (altimeter): 30.08 in. Hg (1018 hPa)
ob: KCEZ 220153Z AUTO 15015G27KT 10SM CLR 26/05 A3008 RMK AO2 PK WND 16030/0143 SLP105 T02560050
cycle: 2

Station Type Date Time Source
KCEZ TAF UTC NOAA

Error!

Example: see airport list